Time;durP1;ratioP1;P1;durP2;ratioP2;P2;SDS_P1;SDS_P2;PMS_P1;PMS_P2;Temp;Humidity;BMP_temperature;BMP_pressure;BME280_temperature;BME280_humidity;BME280_pressure;Samples;Min_cycle;Max_cycle;Signal;HPM_P1;HPM_P2
2022/11/03 00:01:59;;;;;;;0.03;0.00;;;10.20;99.90;;;;;;4847649;29;20063;-85
2022/11/03 00:04:24;;;;;;;0.93;0.10;;;10.30;99.90;;;;;;4833952;29;20037;-85
2022/11/03 00:06:52;;;;;;;0.27;0.20;;;10.30;99.90;;;;;;4848016;29;20072;-88
2022/11/03 00:09:32;;;;;;;;;;;;;;;;;;;;;
2022/11/03 00:12:00;;;;;;;0.10;0.10;;;10.30;99.90;;;;;;4847762;29;20060;-88
2022/11/03 00:14:28;;;;;;;0.00;0.00;;;10.30;99.90;;;;;;4812308;29;20083;-84
2022/11/03 00:16:54;;;;;;;0.08;0.08;;;10.40;99.90;;;;;;4808528;29;20089;-91
2022/11/03 00:19:20;;;;;;;0.20;0.20;;;10.40;99.90;;;;;;4815098;29;20089;-85
2022/11/03 00:21:46;;;;;;;0.30;0.10;;;10.30;99.90;;;;;;4845752;29;20056;-85
2022/11/03 00:24:12;;;;;;;0.73;0.20;;;10.40;99.90;;;;;;4830705;29;20057;-86
2022/11/03 00:26:41;;;;;;;1.58;0.85;;;10.40;99.90;;;;;;4845049;29;20049;-87
2022/11/03 00:29:09;;;;;;;0.98;0.05;;;10.40;99.90;;;;;;4844656;29;20055;-85
2022/11/03 00:31:38;;;;;;;3.20;0.35;;;10.40;99.90;;;;;;4829346;29;20050;-85
2022/11/03 00:34:07;;;;;;;0.00;0.00;;;10.30;99.90;;;;;;4830432;29;20076;-85
2022/11/03 00:36:35;;;;;;;0.00;0.00;;;10.30;99.90;;;;;;4845469;29;20132;-86
2022/11/03 00:39:02;;;;;;;0.00;0.00;;;10.30;99.90;;;;;;4829470;29;20050;-86
2022/11/03 00:41:31;;;;;;;0.15;0.15;;;10.40;99.90;;;;;;4829681;29;20049;-86
2022/11/03 00:44:12;;;;;;;0.00;0.00;;;10.40;99.90;;;;;;4831018;29;20396;-86
2022/11/03 00:46:41;;;;;;;0.30;0.10;;;11.10;99.90;;;;;;4845321;29;20493;-86
2022/11/03 00:49:07;;;;;;;0.30;0.10;;;10.40;99.90;;;;;;4829035;29;20136;-86
2022/11/03 00:51:36;;;;;;;0.43;0.10;;;10.20;99.90;;;;;;4829920;29;20109;-86
2022/11/03 00:54:03;;;;;;;0.20;0.10;;;10.20;99.90;;;;;;4844586;29;20140;-86
2022/11/03 00:56:32;;;;;;;0.00;0.00;;;10.20;99.90;;;;;;4845292;29;20513;-85
2022/11/03 00:58:59;;;;;;;0.15;0.15;;;10.20;99.90;;;;;;4845556;29;20058;-86
2022/11/03 01:01:30;;;;;;;0.08;0.08;;;10.10;99.90;;;;;;4812334;29;20105;-85
2022/11/03 01:06:49;;;;;;;0.10;0.10;;;10.10;99.90;;;;;;4831697;29;20086;-85
2022/11/03 01:09:34;;;;;;;1.23;0.20;;;10.10;99.90;;;;;;4829788;29;20125;-87
2022/11/03 01:12:01;;;;;;;0.20;0.20;;;9.00;99.90;;;;;;4829562;29;20474;-86
2022/11/03 01:14:39;;;;;;;0.52;0.10;;;10.10;99.90;;;;;;4845430;29;20126;-86
2022/11/03 01:17:07;;;;;;;0.00;0.00;;;10.10;99.90;;;;;;4844937;29;20068;-86
2022/11/03 01:19:33;;;;;;;0.10;0.10;;;10.00;99.90;;;;;;4845158;29;20516;-86
2022/11/03 01:21:58;;;;;;;0.20;0.20;;;10.00;99.90;;;;;;4828703;29;20054;-86
2022/11/03 01:24:24;;;;;;;0.10;0.10;;;10.00;99.90;;;;;;4829844;29;20053;-86
2022/11/03 01:26:50;;;;;;;0.70;0.20;;;10.00;99.90;;;;;;4809365;29;20425;-86
2022/11/03 01:29:16;;;;;;;0.28;0.20;;;9.90;99.90;;;;;;4845333;29;20496;-90
2022/11/03 01:31:42;;;;;;;0.22;0.10;;;9.90;99.90;;;;;;4828434;29;20116;-85
2022/11/03 01:34:16;;;;;;;0.00;0.00;;;9.90;99.90;;;;;;4844334;29;20197;-86
2022/11/03 01:36:45;;;;;;;0.05;0.05;;;9.90;99.90;;;;;;4828645;29;20129;-85
2022/11/03 01:39:16;;;;;;;0.47;0.00;;;9.90;99.90;;;;;;4825395;29;20565;-85
2022/11/03 01:41:47;;;;;;;0.00;0.00;;;9.80;99.90;;;;;;4843453;29;20084;-86
2022/11/03 01:44:31;;;;;;;0.10;0.10;;;10.00;99.90;;;;;;4829934;29;20092;-85
2022/11/03 01:47:12;;;;;;;0.00;0.00;;;9.80;99.90;;;;;;4828213;29;20501;-85
2022/11/03 01:49:43;;;;;;;0.38;0.28;;;9.80;99.90;;;;;;4843679;29;20481;-85
2022/11/03 01:52:15;;;;;;;0.08;0.08;;;9.90;99.90;;;;;;4829536;29;20196;-84
2022/11/03 01:54:44;;;;;;;0.17;0.10;;;9.90;99.90;;;;;;4829397;29;20061;-86
2022/11/03 01:57:18;;;;;;;0.28;0.13;;;9.90;99.90;;;;;;4827950;29;20057;-86
2022/11/03 01:59:46;;;;;;;0.25;0.10;;;9.80;99.90;;;;;;4827850;29;20052;-85
2022/11/03 02:02:12;;;;;;;0.05;0.05;;;9.80;99.90;;;;;;4828336;29;20511;-85
2022/11/03 02:04:38;;;;;;;0.03;0.03;;;9.90;99.90;;;;;;4828901;29;20053;-85
2022/11/03 02:07:13;;;;;;;0.08;0.08;;;9.90;99.90;;;;;;4827878;29;20049;-85
2022/11/03 02:09:48;;;;;;;0.08;0.08;;;9.90;99.90;;;;;;4828084;29;20149;-85
2022/11/03 02:12:16;;;;;;;0.20;0.20;;;9.90;99.90;;;;;;4843000;29;20076;-85
2022/11/03 02:14:58;;;;;;;0.40;0.20;;;9.80;99.90;;;;;;4828831;29;20057;-85
2022/11/03 02:17:29;;;;;;;0.05;0.05;;;9.80;99.90;;;;;;4841230;29;20734;-85
2022/11/03 02:20:06;;;;;;;0.08;0.08;;;9.80;99.90;;;;;;4828318;29;20061;-85
2022/11/03 02:22:41;;;;;;;0.08;0.00;;;9.80;99.90;;;;;;4828725;29;20434;-85
2022/11/03 02:25:32;;;;;;;0.05;0.05;;;9.90;99.90;;;;;;4844771;29;20057;-85
2022/11/03 02:27:58;;;;;;;0.20;0.20;;;9.90;99.90;;;;;;4827385;29;20053;-85
2022/11/03 02:30:26;;;;;;;;;;;9.90;99.90;;;;;;4843512;29;20049;-88
2022/11/03 02:33:05;;;;;;;;;;;9.80;99.90;;;;;;4829731;29;19928;-85
2022/11/03 02:36:04;;;;;;;0.08;0.08;;;9.80;99.90;;;;;;4827099;29;20335;-85
2022/11/03 02:38:32;;;;;;;1.17;0.10;;;9.80;99.90;;;;;;4826394;29;20067;-85
2022/11/03 02:41:02;;;;;;;0.00;0.00;;;9.80;99.90;;;;;;4827729;29;20041;-85
2022/11/03 02:43:28;;;;;;;0.10;0.10;;;10.00;99.90;;;;;;4827588;29;20053;-86
2022/11/03 02:45:54;;;;;;;0.43;0.10;;;9.80;99.90;;;;;;4816893;29;20084;-84
2022/11/03 02:48:20;;;;;;;0.35;0.30;;;9.80;99.90;;;;;;4826490;29;20532;-85
2022/11/03 02:50:47;;;;;;;0.10;0.10;;;9.90;99.90;;;;;;4828933;29;20065;-85
2022/11/03 02:53:14;;;;;;;0.10;0.10;;;9.90;99.90;;;;;;4828321;29;20057;-85
2022/11/03 02:55:52;;;;;;;0.08;0.08;;;9.90;99.90;;;;;;4841726;29;20057;-85
2022/11/03 02:58:42;;;;;;;0.22;0.10;;;10.00;99.90;;;;;;4843067;29;20061;-86
2022/11/03 03:01:46;;;;;;;0.10;0.10;;;9.90;99.90;;;;;;4844462;29;20050;-86
2022/11/03 03:04:40;;;;;;;0.20;0.10;;;9.90;99.90;;;;;;4830961;29;20058;-85
2022/11/03 03:07:10;;;;;;;0.00;0.00;;;9.90;99.90;;;;;;4836460;29;20413;-87
2022/11/03 03:09:53;;;;;;;0.52;0.20;;;9.90;99.90;;;;;;4842302;29;20098;-85
2022/11/03 03:12:20;;;;;;;0.30;0.30;;;9.90;99.90;;;;;;4843245;29;20339;-85
2022/11/03 03:14:49;;;;;;;0.20;0.20;;;9.90;99.90;;;;;;4827587;29;20073;-85
2022/11/03 03:17:29;;;;;;;0.03;0.03;;;9.90;99.90;;;;;;4841942;29;20136;-85
2022/11/03 03:20:00;;;;;;;0.00;0.00;;;9.90;99.90;;;;;;4817900;29;20058;-86
2022/11/03 03:22:36;;;;;;;0.00;0.00;;;10.00;99.90;;;;;;4824565;29;20105;-85
2022/11/03 03:25:31;;;;;;;0.10;0.10;;;10.00;99.90;;;;;;4827149;29;20049;-85
2022/11/03 03:28:17;;;;;;;0.32;0.10;;;10.00;99.90;;;;;;4826261;29;20117;-85
2022/11/03 03:30:45;;;;;;;0.20;0.17;;;10.00;99.90;;;;;;4826878;29;20064;-85
2022/11/03 03:33:13;;;;;;;0.00;0.00;;;11.00;99.90;;;;;;4826953;29;20053;-86
2022/11/03 03:35:45;;;;;;;0.00;0.00;;;10.00;99.90;;;;;;4826034;29;20132;-88
2022/11/03 03:38:37;;;;;;;0.17;0.17;;;10.00;99.90;;;;;;4825880;29;20061;-85
2022/11/03 03:41:05;;;;;;;0.00;0.00;;;10.00;99.90;;;;;;4826613;29;20057;-85
2022/11/03 03:43:33;;;;;;;0.10;0.10;;;10.00;99.90;;;;;;4828764;29;20069;-86
2022/11/03 03:46:06;;;;;;;0.00;0.00;;;9.90;99.90;;;;;;4840247;29;20505;-85
2022/11/03 03:48:32;;;;;;;0.00;0.00;;;10.10;99.90;;;;;;4845997;29;20053;-85
2022/11/03 03:50:59;;;;;;;0.10;0.10;;;10.00;99.90;;;;;;4846355;29;20050;-85
2022/11/03 03:53:28;;;;;;;0.00;0.00;;;9.90;99.90;;;;;;4815883;29;20053;-85
2022/11/03 03:56:04;;;;;;;1.13;0.10;;;10.00;99.90;;;;;;4832202;29;20061;-96
2022/11/03 03:58:40;;;;;;;0.52;0.10;;;10.00;99.90;;;;;;4834977;29;20092;-96
2022/11/03 04:01:11;;;;;;;0.55;0.20;;;10.00;99.90;;;;;;4835209;29;20154;-96
2022/11/03 04:03:36;;;;;;;0.20;0.10;;;10.00;99.90;;;;;;4833957;29;20046;-96
2022/11/03 04:06:02;;;;;;;0.30;0.30;;;9.90;99.90;;;;;;4833731;29;20595;-96
2022/11/03 04:08:30;;;;;;;0.00;0.00;;;10.00;99.90;;;;;;4833638;29;20046;-96
2022/11/03 04:22:17;;;;;;;0.75;0.22;;;9.80;99.90;;;;;;4847883;29;20148;-96
2022/11/03 04:24:52;;;;;;;0.00;0.00;;;10.00;99.90;;;;;;4841563;29;20049;-93
2022/11/03 04:27:29;;;;;;;0.00;0.00;;;9.30;99.90;;;;;;4846111;29;20070;-95
2022/11/03 04:30:15;;;;;;;0.00;0.00;;;9.90;99.90;;;;;;4844779;29;20127;-94
2022/11/03 04:32:44;;;;;;;0.38;0.10;;;9.50;99.90;;;;;;4832239;29;20053;-96
2022/11/03 04:35:27;;;;;;;0.25;0.25;;;9.80;99.90;;;;;;4832389;29;20397;-96
2022/11/03 04:38:05;;;;;;;0.52;0.10;;;9.80;99.90;;;;;;4836876;29;20121;-96
2022/11/03 04:40:34;;;;;;;0.00;0.00;;;9.90;99.90;;;;;;4833758;29;20136;-96
2022/11/03 04:43:00;;;;;;;0.08;0.08;;;9.90;99.90;;;;;;4817228;29;20401;-96
2022/11/03 04:45:32;;;;;;;0.00;0.00;;;9.60;99.90;;;;;;4832664;29;20104;-96
2022/11/03 04:48:09;;;;;;;0.03;0.03;;;9.90;99.90;;;;;;4832319;29;20445;-95
2022/11/03 04:50:47;;;;;;;0.00;0.00;;;9.30;99.90;;;;;;4832090;29;20091;-96
2022/11/03 04:53:21;;;;;;;0.00;0.00;;;9.90;99.90;;;;;;4817797;29;20294;-96
2022/11/03 04:55:50;;;;;;;0.03;0.03;;;10.00;99.90;;;;;;4831393;29;20057;-95
2022/11/03 04:58:25;;;;;;;0.10;0.10;;;9.90;99.90;;;;;;4831616;29;20140;-95
2022/11/03 05:00:53;;;;;;;0.65;0.10;;;9.90;99.90;;;;;;4831382;29;20519;-95
2022/11/03 05:03:26;;;;;;;0.10;0.10;;;9.30;99.90;;;;;;4832707;29;20057;-96
2022/11/03 05:05:52;;;;;;;0.20;0.20;;;9.80;99.90;;;;;;4831938;29;20049;-94
2022/11/03 05:08:22;;;;;;;0.10;0.10;;;10.00;99.90;;;;;;4832313;29;20053;-96
2022/11/03 05:10:51;;;;;;;0.10;0.10;;;9.90;99.90;;;;;;4832365;29;20145;-96
2022/11/03 05:13:20;;;;;;;0.70;0.20;;;9.90;99.90;;;;;;4834179;29;20045;-96
2022/11/03 05:15:48;;;;;;;0.00;0.00;;;9.90;99.90;;;;;;4831698;29;20145;-95
2022/11/03 05:18:28;;;;;;;0.55;0.20;;;9.90;99.90;;;;;;4831660;29;20049;-96
2022/11/03 05:20:57;;;;;;;0.10;0.10;;;9.10;99.90;;;;;;4833059;29;20057;-95
2022/11/03 05:23:25;;;;;;;0.25;0.25;;;10.10;99.90;;;;;;4832005;29;20509;-96
2022/11/03 05:25:58;;;;;;;0.17;0.17;;;9.90;99.90;;;;;;4834241;29;20046;-94
2022/11/03 05:28:34;;;;;;;0.10;0.10;;;10.00;99.90;;;;;;4843577;29;20113;-96
2022/11/03 05:31:08;;;;;;;0.00;0.00;;;10.00;99.90;;;;;;4838875;29;20136;-95
2022/11/03 05:33:35;;;;;;;0.20;0.20;;;10.00;99.90;;;;;;4834467;29;20096;-96
2022/11/03 05:36:11;;;;;;;0.00;0.00;;;8.80;99.90;;;;;;4841702;29;20049;-94
2022/11/03 05:38:46;;;;;;;0.20;0.20;;;10.00;99.90;;;;;;4832300;29;20049;-96
2022/11/03 05:41:31;;;;;;;0.20;0.20;;;9.40;99.90;;;;;;4832025;29;20056;-95
2022/11/03 05:44:04;;;;;;;0.00;0.00;;;10.30;99.90;;;;;;4832431;29;20497;-96
2022/11/03 05:46:40;;;;;;;0.13;0.00;;;9.00;99.90;;;;;;4833605;29;20045;-94
2022/11/03 05:49:06;;;;;;;0.10;0.10;;;10.00;99.90;;;;;;4833213;29;20061;-96
2022/11/03 05:51:36;;;;;;;0.08;0.08;;;10.00;99.90;;;;;;4817668;29;20057;-95
2022/11/03 05:54:13;;;;;;;0.93;0.28;;;9.60;99.90;;;;;;4831450;29;20065;-96
2022/11/03 05:56:41;;;;;;;0.05;0.05;;;10.00;99.90;;;;;;4831329;29;20133;-96
2022/11/03 05:59:10;;;;;;;0.13;0.13;;;10.10;99.90;;;;;;4817591;29;20569;-96
2022/11/03 06:01:42;;;;;;;0.98;0.63;;;10.10;99.90;;;;;;4840243;29;20128;-96
2022/11/03 06:04:39;;;;;;;0.10;0.10;;;10.10;99.90;;;;;;4833754;29;20049;-96
2022/11/03 06:07:25;;;;;;;0.25;0.10;;;9.80;99.90;;;;;;4831794;29;20062;-95
2022/11/03 06:09:52;;;;;;;0.22;0.22;;;10.00;99.90;;;;;;4831109;29;20050;-95
2022/11/03 06:12:22;;;;;;;0.10;0.10;;;10.00;99.90;;;;;;4815976;29;20088;-95
2022/11/03 06:14:55;;;;;;;0.00;0.00;;;10.00;99.90;;;;;;4834203;29;20050;-96
2022/11/03 06:17:25;;;;;;;0.68;0.17;;;10.10;99.90;;;;;;4830820;29;20061;-96
2022/11/03 06:20:01;;;;;;;0.20;0.10;;;10.10;99.90;;;;;;4831144;29;20056;-96
2022/11/03 06:22:27;;;;;;;0.00;0.00;;;9.90;99.90;;;;;;4831349;29;20104;-96
2022/11/03 06:25:22;;;;;;;0.30;0.30;;;10.00;99.90;;;;;;4831553;29;20053;-94
2022/11/03 06:27:51;;;;;;;0.20;0.10;;;10.00;99.90;;;;;;4831204;29;20057;-95
2022/11/03 06:30:28;;;;;;;0.20;0.20;;;9.90;99.90;;;;;;4829948;29;20089;-92
2022/11/03 06:33:15;;;;;;;0.20;0.20;;;10.00;99.90;;;;;;4831084;29;20065;-93
2022/11/03 06:35:42;;;;;;;1.60;0.40;;;10.20;99.90;;;;;;4830219;29;20060;-93
2022/11/03 06:38:18;;;;;;;0.45;0.10;;;10.00;99.90;;;;;;4814974;29;20053;-92
2022/11/03 06:40:53;;;;;;;0.10;0.00;;;10.00;99.90;;;;;;4830787;29;20061;-92
2022/11/03 06:43:23;;;;;;;0.10;0.10;;;10.10;99.90;;;;;;4845232;29;20109;-93
2022/11/03 06:45:55;;;;;;;0.10;0.10;;;10.20;99.90;;;;;;4830299;29;20465;-92
2022/11/03 06:48:33;;;;;;;0.10;0.10;;;10.00;99.90;;;;;;4829658;29;20100;-93
2022/11/03 06:51:10;;;;;;;;;;;;;;;;;;;;;
2022/11/03 06:53:38;;;;;;;;;;;10.10;99.90;;;;;;4845434;29;20519;-93
2022/11/03 06:56:11;;;;;;;;;;;10.10;99.90;;;;;;4829675;29;19947;-93
2022/11/03 06:58:40;;;;;;;0.13;0.10;;;10.10;99.90;;;;;;4845872;29;20269;-92
2022/11/03 07:01:15;;;;;;;0.00;0.00;;;10.10;99.90;;;;;;4829169;29;20053;-93
2022/11/03 07:04:02;;;;;;;0.10;0.10;;;10.10;99.90;;;;;;4845340;29;20122;-91
2022/11/03 07:06:31;;;;;;;0.10;0.10;;;10.10;99.90;;;;;;4829177;29;20111;-87
2022/11/03 07:09:03;;;;;;;0.10;0.10;;;10.20;99.90;;;;;;4829006;29;20057;-86
2022/11/03 07:11:43;;;;;;;0.10;0.10;;;10.10;99.90;;;;;;4844179;29;20096;-87
2022/11/03 07:14:35;;;;;;;0.10;0.10;;;10.20;99.90;;;;;;4830410;29;20498;-89
2022/11/03 07:17:12;;;;;;;0.05;0.05;;;9.40;99.90;;;;;;4827009;29;20061;-95
2022/11/03 07:19:42;;;;;;;0.08;0.08;;;10.30;99.90;;;;;;4829961;29;20553;-96
2022/11/03 07:22:21;;;;;;;0.10;0.10;;;10.30;99.90;;;;;;4830277;29;20061;-93
2022/11/03 07:24:51;;;;;;;0.20;0.20;;;10.30;99.90;;;;;;4849160;29;20045;-96
2022/11/03 07:27:25;;;;;;;0.15;0.15;;;10.40;99.90;;;;;;4850056;29;20105;-94
2022/11/03 07:29:56;;;;;;;0.10;0.10;;;10.40;99.90;;;;;;4835020;29;20049;-96
2022/11/03 07:32:37;;;;;;;0.20;0.10;;;10.50;99.90;;;;;;4832738;29;20302;-96
2022/11/03 07:35:14;;;;;;;0.13;0.13;;;10.50;99.90;;;;;;4831719;29;20130;-89
2022/11/03 07:37:40;;;;;;;0.10;0.10;;;10.60;99.90;;;;;;4832417;29;20140;-90
2022/11/03 07:40:24;;;;;;;0.00;0.00;;;10.70;99.90;;;;;;4831136;29;20136;-89
2022/11/03 07:42:51;;;;;;;0.00;0.00;;;10.70;99.90;;;;;;4832572;29;20109;-91
2022/11/03 07:45:39;;;;;;;0.30;0.30;;;10.80;99.90;;;;;;4816921;29;20086;-94
2022/11/03 07:48:32;;;;;;;0.00;0.00;;;10.80;99.90;;;;;;4846935;29;20393;-89
2022/11/03 07:51:03;;;;;;;0.10;0.10;;;10.80;99.90;;;;;;4832137;29;20058;-90
2022/11/03 07:53:48;;;;;;;1.10;0.43;;;10.90;99.90;;;;;;4848140;29;20057;-85
2022/11/03 07:56:21;;;;;;;0.20;0.20;;;11.00;99.90;;;;;;4830465;29;20054;-93
2022/11/03 07:58:54;;;;;;;0.00;0.00;;;11.00;99.90;;;;;;4831561;29;20475;-90
2022/11/03 08:01:28;;;;;;;0.38;0.25;;;11.10;99.90;;;;;;4848427;29;20117;-91
2022/11/03 08:04:23;;;;;;;0.52;0.52;;;11.10;99.90;;;;;;4832239;29;20505;-92
2022/11/03 08:06:48;;;;;;;0.20;0.20;;;11.10;99.90;;;;;;4831208;29;20470;-95
2022/11/03 08:09:15;;;;;;;0.20;0.20;;;11.20;99.90;;;;;;4817673;29;20049;-93
2022/11/03 08:11:41;;;;;;;0.20;0.20;;;11.30;99.90;;;;;;4817017;29;20446;-95
2022/11/03 08:14:06;;;;;;;0.00;0.00;;;11.30;99.90;;;;;;4832120;29;20060;-94
2022/11/03 08:16:32;;;;;;;0.00;0.00;;;11.50;99.90;;;;;;4833159;29;20045;-93
2022/11/03 08:18:58;;;;;;;2.43;0.93;;;11.40;99.90;;;;;;4822138;29;20061;-93
2022/11/03 08:21:24;;;;;;;0.00;0.00;;;11.50;99.90;;;;;;4832858;29;20056;-92
2022/11/03 08:23:50;;;;;;;0.00;0.00;;;11.50;99.90;;;;;;4820405;29;20077;-92
2022/11/03 08:26:16;;;;;;;0.32;0.10;;;11.60;99.90;;;;;;4835430;29;20049;-92
2022/11/03 08:28:42;;;;;;;0.20;0.10;;;11.60;99.90;;;;;;4833720;29;20053;-93
2022/11/03 08:31:08;;;;;;;0.40;0.30;;;11.60;99.90;;;;;;4832638;29;20056;-93
2022/11/03 08:33:34;;;;;;;0.10;0.10;;;11.70;99.90;;;;;;4830144;29;20061;-92
2022/11/03 08:36:01;;;;;;;0.10;0.10;;;11.70;99.90;;;;;;4831702;29;20497;-92
2022/11/03 08:38:30;;;;;;;0.00;0.00;;;11.70;99.90;;;;;;4832854;29;20056;-91
2022/11/03 08:40:59;;;;;;;0.20;0.20;;;11.70;99.90;;;;;;4848584;29;20128;-94
2022/11/03 08:43:27;;;;;;;0.05;0.03;;;11.80;99.90;;;;;;4832379;29;20057;-90
2022/11/03 08:45:55;;;;;;;0.30;0.30;;;11.90;99.90;;;;;;4815409;29;20052;-91
2022/11/03 08:48:28;;;;;;;0.05;0.05;;;11.80;99.90;;;;;;4815480;29;20061;-91
2022/11/03 08:50:55;;;;;;;0.10;0.10;;;11.20;99.90;;;;;;4831367;29;20097;-91
2022/11/03 08:53:23;;;;;;;;;;;11.00;99.90;;;;;;4832201;29;20057;-92
2022/11/03 08:55:49;;;;;;;0.30;0.30;;;12.00;99.90;;;;;;4830784;29;20383;-89
2022/11/03 08:58:15;;;;;;;0.10;0.10;;;11.90;99.90;;;;;;4832746;29;20055;-94
2022/11/03 09:00:41;;;;;;;0.32;0.20;;;12.00;99.90;;;;;;4835957;29;20057;-92
2022/11/03 09:06:04;;;;;;;0.10;0.10;;;12.00;99.90;;;;;;4891106;29;20049;-93
2022/11/03 09:08:29;;;;;;;0.55;0.20;;;12.00;99.90;;;;;;4882828;29;20045;-88
2022/11/03 09:11:00;;;;;;;1.07;0.20;;;12.10;99.90;;;;;;4862841;29;20518;-92
2022/11/03 09:13:33;;;;;;;0.50;0.20;;;12.70;99.90;;;;;;4872898;29;20172;-93
2022/11/03 09:16:11;;;;;;;0.00;0.00;;;11.30;99.90;;;;;;4884527;29;20041;-93
2022/11/03 09:18:49;;;;;;;0.00;0.00;;;12.20;99.90;;;;;;4866889;29;20196;-95
2022/11/03 09:21:15;;;;;;;1.55;0.25;;;11.50;99.90;;;;;;4868750;29;20135;-92
2022/11/03 09:23:41;;;;;;;0.20;0.20;;;12.40;99.90;;;;;;4882587;29;20132;-92
2022/11/03 09:26:16;;;;;;;0.50;0.30;;;12.40;99.90;;;;;;4867606;29;20309;-91
2022/11/03 09:28:44;;;;;;;0.28;0.20;;;12.00;99.90;;;;;;4868113;29;20512;-96
2022/11/03 09:31:10;;;;;;;1.40;0.20;;;12.40;99.90;;;;;;4867137;29;20045;-90
2022/11/03 09:33:36;;;;;;;0.40;0.40;;;12.50;99.90;;;;;;4867739;29;20052;-88
2022/11/03 09:36:02;;;;;;;0.10;0.10;;;12.70;99.90;;;;;;4873998;29;20124;-92
2022/11/03 09:38:30;;;;;;;0.20;0.20;;;11.60;99.90;;;;;;4868236;29;20052;-94
2022/11/03 09:40:59;;;;;;;0.20;0.20;;;12.70;99.90;;;;;;4853200;29;20289;-94
2022/11/03 09:43:34;;;;;;;0.10;0.10;;;12.80;99.90;;;;;;4867844;29;20100;-95
2022/11/03 09:46:03;;;;;;;0.17;0.17;;;12.90;99.90;;;;;;4866872;29;20061;-94
2022/11/03 09:48:29;;;;;;;3.20;0.40;;;13.00;99.90;;;;;;4873809;29;20044;-89
2022/11/03 09:50:56;;;;;;;2.73;0.30;;;13.10;99.90;;;;;;4874449;29;20054;-93
2022/11/03 09:53:35;;;;;;;;;;;;;;;;;;;;;
2022/11/03 09:56:01;;;;;;;0.17;0.10;;;13.40;99.90;;;;;;4871445;29;20069;-92
2022/11/03 09:58:27;;;;;;;4.47;0.70;;;13.60;99.90;;;;;;4856268;29;20056;-91
2022/11/03 10:00:52;;;;;;;0.20;0.20;;;13.70;99.90;;;;;;4873667;29;20091;-92
2022/11/03 10:03:19;;;;;;;0.13;0.13;;;13.90;99.90;;;;;;4867643;29;20286;-92
2022/11/03 10:05:46;;;;;;;0.00;0.00;;;14.00;99.90;;;;;;4856229;29;20068;-87
2022/11/03 10:08:27;;;;;;;0.03;0.00;;;13.90;99.90;;;;;;4857508;29;20063;-89
2022/11/03 10:10:54;;;;;;;0.00;0.00;;;14.10;99.90;;;;;;4869694;29;20045;-88
2022/11/03 10:13:36;;;;;;;0.17;0.15;;;14.00;99.90;;;;;;4870691;29;20412;-88
2022/11/03 10:16:05;;;;;;;0.22;0.20;;;14.00;99.90;;;;;;4880976;29;20100;-88
2022/11/03 10:18:32;;;;;;;0.90;0.20;;;13.90;99.90;;;;;;4847304;29;20051;-87
2022/11/03 10:21:05;;;;;;;1.13;0.20;;;13.90;99.90;;;;;;4862384;29;20519;-88
2022/11/03 10:23:31;;;;;;;0.10;0.10;;;14.10;99.90;;;;;;4858686;29;20060;-87
2022/11/03 10:26:17;;;;;;;0.10;0.10;;;13.20;99.90;;;;;;4863543;29;20045;-90
2022/11/03 10:29:03;;;;;;;0.30;0.20;;;14.40;99.90;;;;;;4860691;29;20567;-89
2022/11/03 10:31:35;;;;;;;0.43;0.10;;;14.60;99.90;;;;;;4848733;29;20077;-88
2022/11/03 10:34:37;;;;;;;0.10;0.10;;;14.80;99.90;;;;;;4865277;29;20056;-88
2022/11/03 10:37:25;;;;;;;0.00;0.00;;;16.00;99.90;;;;;;4891993;29;20052;-90
2022/11/03 10:39:55;;;;;;;0.00;0.00;;;15.20;99.90;;;;;;4851819;29;20670;-86
2022/11/03 10:42:30;;;;;;;0.10;0.10;;;15.50;99.90;;;;;;4873996;29;20040;-85
2022/11/03 10:45:19;;;;;;;0.55;0.22;;;15.50;99.90;;;;;;4856733;29;20096;-87
2022/11/03 10:48:04;;;;;;;0.25;0.17;;;15.40;99.90;;;;;;4855466;29;20492;-93
2022/11/03 10:51:06;;;;;;;1.35;0.22;;;15.30;99.90;;;;;;4859687;29;20049;-96
2022/11/03 10:53:38;;;;;;;0.10;0.10;;;15.20;99.90;;;;;;4867229;29;20056;-92
2022/11/03 10:56:04;;;;;;;0.05;0.05;;;15.10;99.90;;;;;;4851547;29;20140;-90
2022/11/03 10:58:34;;;;;;;0.10;0.10;;;15.20;99.90;;;;;;4857207;29;20515;-91
2022/11/03 11:01:02;;;;;;;0.00;0.00;;;15.10;99.90;;;;;;4849126;29;20164;-91
2022/11/03 11:03:29;;;;;;;0.17;0.10;;;15.00;99.90;;;;;;4830000;29;20363;-90
2022/11/03 11:05:58;;;;;;;0.10;0.03;;;15.60;99.90;;;;;;4859609;29;20049;-91
2022/11/03 11:08:26;;;;;;;0.10;0.10;;;14.90;99.90;;;;;;4855196;29;20105;-90
2022/11/03 11:10:57;;;;;;;0.38;0.38;;;15.20;99.90;;;;;;4880378;29;20056;-86
2022/11/03 11:13:27;;;;;;;0.10;0.10;;;15.50;99.90;;;;;;4881655;29;20048;-96
2022/11/03 11:16:23;;;;;;;0.10;0.10;;;16.20;99.90;;;;;;4854518;29;20052;-96
2022/11/03 11:18:57;;;;;;;0.10;0.10;;;16.30;99.90;;;;;;4870408;29;20109;-93
2022/11/03 11:21:24;;;;;;;0.20;0.20;;;16.90;99.90;;;;;;4851224;29;20531;-96
2022/11/03 11:24:10;;;;;;;0.00;0.00;;;17.00;99.90;;;;;;4859043;29;20052;-96
2022/11/03 11:26:38;;;;;;;0.10;0.10;;;17.20;99.90;;;;;;4859119;29;20432;-96
2022/11/03 11:29:16;;;;;;;0.00;0.00;;;17.20;99.90;;;;;;4862098;29;20044;-95
2022/11/03 11:31:42;;;;;;;0.10;0.10;;;16.10;99.90;;;;;;4864119;29;20480;-92
2022/11/03 11:34:08;;;;;;;0.43;0.10;;;16.80;99.90;;;;;;4848736;29;20048;-96
2022/11/03 11:36:39;;;;;;;0.55;0.10;;;16.50;99.90;;;;;;4851127;29;20089;-95
2022/11/03 11:39:29;;;;;;;0.25;0.20;;;16.30;99.90;;;;;;4851493;29;20057;-96
2022/11/03 11:42:23;;;;;;;0.00;0.00;;;16.20;99.90;;;;;;4876264;29;20425;-96
2022/11/03 11:44:57;;;;;;;0.43;0.20;;;16.00;99.90;;;;;;4880948;29;20045;-96
2022/11/03 11:50:07;;;;;;;0.10;0.10;;;15.80;99.90;;;;;;4807011;23;1116352;-91
2022/11/03 11:52:37;;;;;;;0.10;0.10;;;15.60;99.90;;;;;;4824739;29;20053;-91
2022/11/03 11:55:15;;;;;;;0.10;0.10;;;15.50;99.90;;;;;;4818163;29;20034;-90
2022/11/03 11:57:41;;;;;;;0.10;0.10;;;15.40;99.90;;;;;;4809718;29;20100;-89
2022/11/03 12:00:21;;;;;;;0.00;0.00;;;15.40;99.90;;;;;;4799445;29;20050;-90
2022/11/03 12:02:50;;;;;;;0.20;0.20;;;15.20;99.90;;;;;;4806898;29;20050;-91
2022/11/03 12:05:30;;;;;;;0.00;0.00;;;15.20;99.90;;;;;;4778094;29;20058;-90
2022/11/03 12:07:56;;;;;;;0.45;0.10;;;15.20;99.90;;;;;;4792812;29;20050;-90
2022/11/03 12:10:30;;;;;;;0.00;0.00;;;15.20;99.90;;;;;;4810779;29;20542;-90
2022/11/03 12:12:58;;;;;;;0.05;0.05;;;15.10;99.90;;;;;;4810591;29;20304;-90
2022/11/03 12:15:56;;;;;;;0.20;0.10;;;15.00;99.90;;;;;;4823292;29;20204;-91
2022/11/03 12:18:35;;;;;;;0.10;0.10;;;15.00;99.90;;;;;;4814014;29;20046;-89
2022/11/03 12:21:09;;;;;;;0.60;0.10;;;15.00;99.90;;;;;;4813317;29;20069;-90
2022/11/03 12:23:42;;;;;;;0.10;0.10;;;15.00;99.90;;;;;;4814139;29;20513;-90
2022/11/03 12:26:17;;;;;;;0.00;0.00;;;15.00;99.90;;;;;;4812469;29;20050;-90
2022/11/03 12:28:43;;;;;;;0.00;0.00;;;15.00;99.90;;;;;;4800745;29;20085;-90
2022/11/03 12:31:09;;;;;;;0.10;0.10;;;14.90;99.90;;;;;;4810119;29;20153;-90
2022/11/03 12:33:35;;;;;;;0.20;0.20;;;14.90;99.90;;;;;;4794809;29;20053;-90
2022/11/03 12:36:03;;;;;;;0.47;0.10;;;14.90;99.90;;;;;;4818962;29;20311;-91
2022/11/03 12:38:32;;;;;;;0.90;0.10;;;14.90;99.90;;;;;;4813372;29;20401;-91
2022/11/03 12:41:19;;;;;;;0.20;0.20;;;14.80;99.90;;;;;;4798066;29;20056;-90
2022/11/03 12:43:43;;;;;;;0.30;0.20;;;14.80;99.90;;;;;;4814950;29;20501;-94
2022/11/03 12:46:09;;;;;;;0.43;0.07;;;14.80;99.90;;;;;;4794485;29;20057;-90
2022/11/03 12:48:35;;;;;;;0.10;0.10;;;14.70;99.90;;;;;;4794787;29;20307;-90
2022/11/03 12:51:00;;;;;;;0.10;0.10;;;14.70;99.90;;;;;;4779960;29;20098;-91
2022/11/03 12:53:26;;;;;;;0.00;0.00;;;14.70;99.90;;;;;;4795053;29;20771;-90
2022/11/03 12:55:51;;;;;;;0.13;0.13;;;14.80;99.90;;;;;;4795954;29;20504;-91
2022/11/03 12:58:17;;;;;;;0.17;0.17;;;14.90;99.90;;;;;;4798077;29;20519;-91
2022/11/03 13:00:43;;;;;;;0.00;0.00;;;15.00;99.90;;;;;;4812924;29;20133;-90
2022/11/03 13:03:09;;;;;;;1.10;0.10;;;15.20;99.90;;;;;;4797778;29;20509;-91
2022/11/03 13:05:34;;;;;;;0.00;0.00;;;15.40;99.90;;;;;;4812846;29;20080;-91
2022/11/03 13:08:03;;;;;;;0.10;0.10;;;15.80;99.90;;;;;;4811568;29;20302;-91
2022/11/03 13:10:29;;;;;;;0.10;0.00;;;16.00;99.90;;;;;;4795450;29;20054;-91
2022/11/03 13:12:57;;;;;;;0.15;0.10;;;16.00;99.90;;;;;;4794651;29;20050;-91
2022/11/03 13:15:25;;;;;;;0.30;0.10;;;15.90;99.90;;;;;;4809386;29;20094;-91
2022/11/03 13:17:51;;;;;;;0.05;0.05;;;15.80;99.90;;;;;;4809549;29;20406;-91
2022/11/03 13:20:17;;;;;;;0.20;0.20;;;15.70;99.90;;;;;;4794050;29;20042;-91
2022/11/03 13:22:43;;;;;;;1.45;0.88;;;15.70;99.90;;;;;;4794856;29;20459;-92
2022/11/03 13:25:08;;;;;;;0.00;0.00;;;15.60;99.90;;;;;;4807337;29;20165;-91
2022/11/03 13:27:43;;;;;;;0.08;0.08;;;15.50;99.90;;;;;;4809459;29;20054;-91
2022/11/03 13:30:09;;;;;;;0.30;0.10;;;16.40;99.90;;;;;;4780294;29;20058;-91
2022/11/03 13:32:35;;;;;;;0.13;0.05;;;15.40;99.90;;;;;;4794269;29;20065;-91
2022/11/03 13:35:00;;;;;;;0.10;0.10;;;15.20;99.90;;;;;;4794210;29;20054;-92
2022/11/03 13:37:26;;;;;;;0.20;0.20;;;15.20;99.90;;;;;;4824112;29;20426;-91
2022/11/03 13:39:52;;;;;;;0.17;0.10;;;15.20;99.90;;;;;;4812879;29;20517;-92